createdAt,value
2019-02-14T00:00:07.165Z,30.30
2019-02-14T00:02:36.029Z,33.20
2019-02-14T00:05:05.203Z,25.83
2019-02-14T00:07:33.998Z,28.93
2019-02-14T00:10:02.719Z,23.77
2019-02-14T00:12:31.508Z,29.33
2019-02-14T00:15:00.237Z,23.40
2019-02-14T00:17:29.017Z,24.87
2019-02-14T00:19:57.745Z,30.03
2019-02-14T00:22:26.467Z,28.27
2019-02-14T00:24:55.210Z,27.30
2019-02-14T00:27:24.007Z,28.33
2019-02-14T00:29:52.806Z,28.17
2019-02-14T00:32:21.528Z,26.03
2019-02-14T00:34:52.511Z,29.07
2019-02-14T00:37:21.240Z,27.07
2019-02-14T00:39:49.994Z,28.27
2019-02-14T00:42:21.877Z,24.30
2019-02-14T00:44:50.708Z,28.83
2019-02-14T00:47:19.460Z,25.10
2019-02-14T00:49:48.201Z,27.23
2019-02-14T00:52:16.999Z,28.30
2019-02-14T00:54:45.818Z,24.50
2019-02-14T00:57:14.551Z,28.00
2019-02-14T00:59:43.315Z,26.77
2019-02-14T01:02:12.040Z,27.53
2019-02-14T01:04:40.784Z,28.07
2019-02-14T01:07:09.556Z,29.93
2019-02-14T01:09:38.349Z,27.23
2019-02-14T01:12:07.794Z,24.53
2019-02-14T01:14:36.589Z,27.03
2019-02-14T01:17:05.386Z,28.97
2019-02-14T01:19:34.196Z,33.40
2019-02-14T01:22:02.984Z,29.83
2019-02-14T01:24:31.691Z,29.60
2019-02-14T01:27:00.420Z,32.33
2019-02-14T01:29:29.204Z,28.43
2019-02-14T01:31:57.974Z,32.27
2019-02-14T01:34:26.702Z,27.07
2019-02-14T01:36:55.433Z,34.20
2019-02-14T01:39:24.151Z,35.07
2019-02-14T01:41:52.949Z,34.03
2019-02-14T01:44:21.664Z,28.27
2019-02-14T01:46:50.680Z,30.60
2019-02-14T01:49:19.418Z,31.07
2019-02-14T01:51:48.150Z,35.87
2019-02-14T01:54:16.877Z,33.87
2019-02-14T01:56:45.671Z,35.37
2019-02-14T01:59:14.368Z,33.83
2019-02-14T02:01:43.152Z,34.00
2019-02-14T02:04:12.448Z,41.37
2019-02-14T02:06:41.263Z,37.70
2019-02-14T02:09:10.047Z,33.27
2019-02-14T02:11:38.827Z,33.37
2019-02-14T02:14:07.598Z,34.80
2019-02-14T02:16:36.323Z,39.27
2019-02-14T02:19:05.102Z,31.20
2019-02-14T02:21:33.915Z,41.47
2019-02-14T02:24:02.623Z,33.00
2019-02-14T02:26:31.352Z,33.17
2019-02-14T02:29:00.143Z,37.73
2019-02-14T02:31:28.929Z,31.87
2019-02-14T02:33:57.677Z,38.97
2019-02-14T02:36:26.462Z,40.70
2019-02-14T02:38:55.253Z,32.03
2019-02-14T02:41:24.095Z,37.47
2019-02-14T02:43:52.867Z,33.70
2019-02-14T02:46:21.618Z,42.40
2019-02-14T02:48:50.357Z,38.33
2019-02-14T02:51:19.158Z,38.90
2019-02-14T02:53:48.441Z,36.87
2019-02-14T02:56:17.249Z,36.23
2019-02-14T02:58:46.012Z,37.13
2019-02-14T03:01:14.739Z,39.83
2019-02-14T03:03:43.485Z,39.00
2019-02-14T03:06:12.278Z,35.63
2019-02-14T03:08:40.998Z,40.33
2019-02-14T03:11:09.817Z,38.73
2019-02-14T03:13:38.595Z,37.17
2019-02-14T03:16:07.381Z,38.33
2019-02-14T03:18:36.124Z,34.97
2019-02-14T03:21:04.895Z,34.47
2019-02-14T03:23:33.613Z,39.10
2019-02-14T03:26:02.334Z,34.30
2019-02-14T03:28:31.074Z,38.87
2019-02-14T03:30:59.801Z,38.10
2019-02-14T03:33:28.507Z,41.40
2019-02-14T03:35:57.242Z,43.77
2019-02-14T03:38:26.039Z,33.50
2019-02-14T03:40:54.747Z,46.73
2019-02-14T03:43:23.530Z,39.53
2019-02-14T03:45:52.244Z,36.13
2019-02-14T03:48:21.095Z,32.50
2019-02-14T03:50:49.976Z,38.27
2019-02-14T03:53:18.754Z,41.27
2019-02-14T03:55:47.471Z,31.13
2019-02-14T03:58:16.217Z,36.60
2019-02-14T04:00:44.999Z,42.20
2019-02-14T04:03:15.803Z,35.97
2019-02-14T04:05:44.524Z,41.93
2019-02-14T04:08:13.245Z,33.60
2019-02-14T04:10:41.962Z,39.63
2019-02-14T04:13:10.701Z,38.77
2019-02-14T04:15:39.422Z,46.47
2019-02-14T04:18:08.242Z,42.63
2019-02-14T04:20:37.034Z,41.27
2019-02-14T04:23:05.751Z,38.10
2019-02-14T04:25:34.454Z,34.57
2019-02-14T04:28:03.191Z,39.50
2019-02-14T04:30:31.912Z,40.33
2019-02-14T04:33:03.420Z,42.77
2019-02-14T04:35:32.140Z,44.03
2019-02-14T04:38:00.867Z,41.87
2019-02-14T04:40:33.602Z,41.53
2019-02-14T04:43:01.862Z,42.67
2019-02-14T04:45:30.670Z,39.90
2019-02-14T04:47:59.414Z,43.10
2019-02-14T04:50:28.132Z,38.37
2019-02-14T04:52:56.850Z,41.47
2019-02-14T04:55:25.575Z,37.20
2019-02-14T04:57:54.289Z,45.50
2019-02-14T05:00:23.126Z,43.27
2019-02-14T05:02:51.840Z,40.73
2019-02-14T05:05:20.581Z,40.03
2019-02-14T05:07:49.331Z,40.47
2019-02-14T05:10:18.040Z,41.57
2019-02-14T05:12:46.760Z,46.77
2019-02-14T05:15:15.475Z,41.00
2019-02-14T05:17:44.174Z,40.73
2019-02-14T05:20:12.919Z,39.53
2019-02-14T05:22:41.709Z,37.43
2019-02-14T05:25:10.538Z,41.47
2019-02-14T05:27:39.333Z,41.93
2019-02-14T05:30:09.272Z,37.87
2019-02-14T05:32:38.030Z,39.57
2019-02-14T05:35:06.803Z,38.27
2019-02-14T05:37:35.544Z,45.27
2019-02-14T05:40:04.395Z,44.63
2019-02-14T05:42:33.195Z,37.40
2019-02-14T05:45:01.940Z,43.20
2019-02-14T05:47:30.730Z,42.73
2019-02-14T05:49:59.451Z,42.43
2019-02-14T05:52:28.250Z,43.87
2019-02-14T05:54:57.095Z,39.80
2019-02-14T05:57:27.366Z,40.30
2019-02-14T05:59:56.323Z,41.50
2019-02-14T06:02:25.059Z,42.77
2019-02-14T06:04:53.859Z,41.30
2019-02-14T06:07:22.590Z,41.53
2019-02-14T06:09:51.385Z,41.17
2019-02-14T06:12:20.134Z,43.67
2019-02-14T06:14:48.918Z,42.80
2019-02-14T06:17:17.663Z,42.83
2019-02-14T06:19:46.385Z,43.17
2019-02-14T06:22:18.391Z,44.73
2019-02-14T06:24:47.181Z,38.73
2019-02-14T06:27:16.055Z,40.60
2019-02-14T06:29:44.861Z,42.03
2019-02-14T06:32:13.650Z,42.10
2019-02-14T06:34:42.523Z,46.07
2019-02-14T06:37:11.269Z,39.07
2019-02-14T06:39:40.023Z,41.47
2019-02-14T06:42:11.824Z,36.43
2019-02-14T06:44:40.548Z,41.80
2019-02-14T06:47:09.294Z,48.97
2019-02-14T06:49:38.101Z,43.40
2019-02-14T06:52:06.886Z,40.30
2019-02-14T06:54:35.637Z,40.20
2019-02-14T06:57:04.438Z,42.53
2019-02-14T06:59:33.265Z,41.57
2019-02-14T07:02:02.069Z,38.80
2019-02-14T07:04:30.766Z,50.90
2019-02-14T07:06:59.613Z,39.57
2019-02-14T07:09:28.321Z,38.73
2019-02-14T07:11:57.057Z,43.20
2019-02-14T07:14:28.692Z,39.40
2019-02-14T07:16:57.400Z,40.93
2019-02-14T07:19:26.139Z,38.93
2019-02-14T07:21:54.895Z,48.10
2019-02-14T07:24:25.155Z,43.20
2019-02-14T07:26:53.942Z,43.33
2019-02-14T07:29:22.659Z,46.33
2019-02-14T07:31:51.389Z,46.30
2019-02-14T07:34:20.105Z,45.90
2019-02-14T07:36:48.971Z,40.97
2019-02-14T07:39:17.693Z,41.30
2019-02-14T07:41:46.421Z,44.77
2019-02-14T07:44:15.173Z,41.93
2019-02-14T07:46:44.231Z,49.07
2019-02-14T07:49:13.059Z,43.33
2019-02-14T07:51:41.809Z,47.70
2019-02-14T07:54:10.599Z,40.67
2019-02-14T07:56:39.460Z,46.87
2019-02-14T07:59:08.316Z,41.83
2019-02-14T08:01:37.127Z,46.57
2019-02-14T08:04:05.898Z,44.93
2019-02-14T08:06:34.725Z,40.43
2019-02-14T08:09:04.815Z,40.77
2019-02-14T08:11:36.305Z,39.30
2019-02-14T08:14:05.244Z,43.97
2019-02-14T08:16:34.055Z,47.53
2019-02-14T08:19:02.802Z,41.77
2019-02-14T08:21:31.583Z,45.90
2019-02-14T08:24:00.329Z,39.33
2019-02-14T08:26:29.096Z,39.63
2019-02-14T08:28:57.939Z,37.47
2019-02-14T08:31:26.684Z,48.57
2019-02-14T08:33:57.425Z,41.77
2019-02-14T08:36:25.961Z,41.53
2019-02-14T08:38:54.819Z,40.60
2019-02-14T08:41:23.623Z,41.13
2019-02-14T08:43:55.256Z,42.67
2019-02-14T08:46:24.108Z,40.80
2019-02-14T08:48:52.920Z,43.50
2019-02-14T08:51:21.897Z,42.73
2019-02-14T08:53:50.698Z,42.97
2019-02-14T08:56:19.494Z,34.37
2019-02-14T08:58:48.228Z,38.73
2019-02-14T09:01:17.067Z,40.70
2019-02-14T09:03:45.876Z,41.50
2019-02-14T09:06:14.630Z,44.70
2019-02-14T09:08:44.767Z,41.97
2019-02-14T09:11:13.593Z,45.17
2019-02-14T09:13:42.353Z,44.93
2019-02-14T09:16:11.084Z,44.80
2019-02-14T09:18:39.845Z,37.77
2019-02-14T09:21:08.653Z,37.10
2019-02-14T09:23:37.475Z,41.13
2019-02-14T09:26:06.270Z,38.13
2019-02-14T09:28:35.133Z,48.13
2019-02-14T09:31:03.932Z,44.90
2019-02-14T09:33:32.805Z,42.17
2019-02-14T09:36:01.527Z,45.83
2019-02-14T09:38:30.286Z,37.13
2019-02-14T09:40:59.124Z,39.13
2019-02-14T09:43:29.776Z,39.20
2019-02-14T09:45:58.418Z,35.53
2019-02-14T09:48:28.467Z,36.83
2019-02-14T09:50:57.292Z,40.70
2019-02-14T09:53:26.076Z,41.50
2019-02-14T09:55:54.893Z,35.63
2019-02-14T09:58:23.700Z,36.37
2019-02-14T10:00:52.538Z,34.90
2019-02-14T10:03:21.356Z,42.90
2019-02-14T10:05:50.141Z,40.80
2019-02-14T10:08:18.932Z,33.73
2019-02-14T10:10:47.779Z,42.47
2019-02-14T10:13:16.709Z,43.90
2019-02-14T10:15:46.898Z,33.67
2019-02-14T10:18:15.634Z,41.50
2019-02-14T10:20:44.383Z,36.17
2019-02-14T10:23:13.309Z,36.50
2019-02-14T10:25:42.075Z,40.33
2019-02-14T10:28:10.833Z,36.40
2019-02-14T10:30:40.237Z,40.10
2019-02-14T10:33:09.264Z,37.90
2019-02-14T10:35:38.044Z,39.30
2019-02-14T10:38:06.846Z,33.67
2019-02-14T10:40:35.642Z,36.60
2019-02-14T10:43:04.400Z,44.33
2019-02-14T10:45:33.167Z,35.93
2019-02-14T10:48:01.989Z,31.97
2019-02-14T10:50:30.895Z,34.73
2019-02-14T10:52:59.621Z,32.80
2019-02-14T10:55:28.682Z,39.17
2019-02-14T10:57:57.663Z,35.67
2019-02-14T11:00:28.607Z,36.50
2019-02-14T11:02:57.353Z,38.17
2019-02-14T11:05:26.493Z,34.17
2019-02-14T11:07:56.350Z,33.43
2019-02-14T11:10:27.452Z,36.73
2019-02-14T11:12:56.264Z,39.70
2019-02-14T11:15:25.163Z,41.70
2019-02-14T11:17:54.023Z,37.33
2019-02-14T11:20:22.746Z,32.50
2019-02-14T11:22:51.562Z,38.67
2019-02-14T11:25:21.899Z,34.50
2019-02-14T11:27:50.663Z,33.37
2019-02-14T11:30:19.441Z,34.07
2019-02-14T11:32:48.239Z,35.37
2019-02-14T11:35:17.176Z,34.10
2019-02-14T11:37:45.916Z,35.17
2019-02-14T11:40:14.802Z,28.97
2019-02-14T11:43:00.946Z,33.30
2019-02-14T11:45:17.742Z,32.53
2019-02-14T11:47:46.523Z,28.10
2019-02-14T11:50:15.294Z,29.80
2019-02-14T11:52:44.202Z,33.33
2019-02-14T11:55:13.121Z,28.10
2019-02-14T11:57:42.002Z,32.63
2019-02-14T12:00:19.910Z,30.87
2019-02-14T12:02:55.019Z,29.80
2019-02-14T12:05:19.194Z,27.87
2019-02-14T12:07:48.014Z,23.63
2019-02-14T12:10:19.096Z,31.60
2019-02-14T12:12:47.979Z,25.20
2019-02-14T12:15:16.913Z,22.40
2019-02-14T12:17:45.689Z,27.33
2019-02-14T12:20:14.558Z,25.70
2019-02-14T12:22:46.822Z,25.80
2019-02-14T12:25:14.198Z,28.07
2019-02-14T12:27:43.101Z,23.90
2019-02-14T12:30:12.763Z,26.03
2019-02-14T12:32:41.740Z,28.13
2019-02-14T12:35:10.707Z,22.80
2019-02-14T12:37:39.461Z,26.73
2019-02-14T12:40:09.008Z,25.27
2019-02-14T12:42:37.891Z,20.50
2019-02-14T12:45:07.731Z,23.87
2019-02-14T12:47:36.505Z,26.03
2019-02-14T12:50:05.471Z,19.60
2019-02-14T12:52:34.245Z,25.27
2019-02-14T12:55:02.997Z,24.20
2019-02-14T12:57:31.725Z,25.40
2019-02-14T13:00:00.514Z,20.27
2019-02-14T13:02:29.483Z,21.07
2019-02-14T13:04:58.223Z,19.07
2019-02-14T13:07:26.962Z,17.47
2019-02-14T13:09:55.814Z,16.50
2019-02-14T13:12:24.542Z,17.10
2019-02-14T13:14:53.391Z,17.50
2019-02-14T13:17:22.186Z,18.10
2019-02-14T13:19:50.921Z,14.53
2019-02-14T13:22:19.737Z,15.60
2019-02-14T13:24:48.502Z,17.80
2019-02-14T13:27:17.268Z,13.87
2019-02-14T13:29:46.014Z,14.13
2019-02-14T13:32:14.830Z,15.53
2019-02-14T13:34:45.466Z,17.13
2019-02-14T13:37:14.171Z,14.93
2019-02-14T13:39:43.057Z,15.90
2019-02-14T13:42:11.789Z,15.93
2019-02-14T13:44:40.595Z,12.87
2019-02-14T13:47:09.391Z,18.63
2019-02-14T13:49:38.238Z,17.57
2019-02-14T13:52:08.255Z,15.17
2019-02-14T13:54:37.278Z,16.13
2019-02-14T13:57:06.231Z,12.70
2019-02-14T13:59:35.097Z,12.70
2019-02-14T14:02:03.884Z,14.37
2019-02-14T14:04:32.736Z,14.87
2019-02-14T14:07:01.514Z,14.43
2019-02-14T14:09:38.516Z,18.10
2019-02-14T14:12:00.820Z,13.17
2019-02-14T14:14:29.634Z,13.97
2019-02-14T14:16:58.434Z,14.63
2019-02-14T14:19:29.904Z,11.53
2019-02-14T14:21:57.835Z,11.87
2019-02-14T14:24:26.763Z,13.53
2019-02-14T14:26:55.573Z,10.93
2019-02-14T14:29:24.410Z,12.73
2019-02-14T14:31:53.290Z,10.23
2019-02-14T14:34:22.092Z,11.43
2019-02-14T14:36:50.958Z,11.17
2019-02-14T14:39:19.722Z,12.40
2019-02-14T14:41:48.465Z,13.00
2019-02-14T14:44:34.131Z,10.03
2019-02-14T14:47:17.600Z,11.70
2019-02-14T14:49:46.483Z,11.87
2019-02-14T14:52:17.823Z,16.27
2019-02-14T14:54:54.243Z,12.23
2019-02-14T15:00:57.476Z,11.33
2019-02-14T15:04:59.242Z,21.30
2019-02-14T15:07:14.809Z,15.77
2019-02-14T15:09:36.786Z,14.47
2019-02-14T15:12:05.706Z,12.43
2019-02-14T15:14:34.802Z,13.20
2019-02-14T15:17:03.907Z,14.90
2019-02-14T15:19:47.498Z,13.63
2019-02-14T15:22:53.691Z,14.27
2019-02-14T15:25:51.447Z,16.13
2019-02-14T15:28:20.383Z,14.50
2019-02-14T15:30:51.237Z,15.03
2019-02-14T15:33:19.993Z,13.33
2019-02-14T15:35:48.754Z,13.43
2019-02-14T15:38:17.486Z,12.80
2019-02-14T15:40:47.663Z,12.93
2019-02-14T15:43:18.676Z,11.60
2019-02-14T15:45:47.484Z,10.57
2019-02-14T15:48:19.014Z,11.53
2019-02-14T15:50:47.817Z,12.90
2019-02-14T15:53:19.190Z,12.30
2019-02-14T15:55:47.115Z,15.50
2019-02-14T15:58:15.908Z,11.90
2019-02-14T16:00:44.719Z,10.60
2019-02-14T16:03:15.292Z,12.50
2019-02-14T16:05:44.072Z,12.77
2019-02-14T16:08:12.914Z,21.03
2019-02-14T16:10:43.648Z,15.40
2019-02-14T16:13:13.679Z,15.00
2019-02-14T16:15:42.508Z,14.17
2019-02-14T16:18:11.381Z,14.40
2019-02-14T16:20:41.975Z,11.83
2019-02-14T16:23:10.739Z,13.87
2019-02-14T16:25:39.623Z,16.57
2019-02-14T16:28:13.829Z,12.27
2019-02-14T16:30:44.015Z,14.00
2019-02-14T16:33:14.391Z,16.90
2019-02-14T16:35:43.298Z,22.20
2019-02-14T16:38:14.148Z,16.43
2019-02-14T16:40:43.074Z,13.57
2019-02-14T16:43:13.192Z,16.37
2019-02-14T16:45:42.718Z,15.10
2019-02-14T16:48:11.534Z,15.40
2019-02-14T16:50:40.388Z,15.93
2019-02-14T16:53:11.245Z,12.70
2019-02-14T16:55:40.004Z,17.00
2019-02-14T16:58:10.815Z,13.40
2019-02-14T17:00:39.563Z,16.53
2019-02-14T17:03:08.390Z,18.57
2019-02-14T17:05:37.188Z,18.63
2019-02-14T17:08:06.202Z,24.27
2019-02-14T17:10:37.231Z,14.73
2019-02-14T17:13:06.111Z,25.23
2019-02-14T17:15:36.159Z,20.83
2019-02-14T17:18:05.021Z,15.03
2019-02-14T17:20:36.912Z,16.37
2019-02-14T17:23:08.510Z,16.93
2019-02-14T17:25:38.611Z,16.17
2019-02-14T17:28:07.526Z,17.80
2019-02-14T17:30:36.464Z,14.63
2019-02-14T17:33:11.323Z,14.57
2019-02-14T17:35:42.528Z,17.63
2019-02-14T17:38:13.477Z,14.17
2019-02-14T17:40:45.993Z,15.03
2019-02-14T17:43:13.028Z,12.73
2019-02-14T17:45:41.804Z,17.70
2019-02-14T17:48:12.733Z,15.83
2019-02-14T17:50:43.042Z,17.03
2019-02-14T17:56:05.315Z,15.97
2019-02-14T17:58:37.195Z,15.10
2019-02-14T18:01:06.356Z,16.13
2019-02-14T18:03:35.212Z,13.37
2019-02-14T18:06:04.091Z,16.30
2019-02-14T18:08:32.905Z,17.13
2019-02-14T18:11:01.784Z,15.57
2019-02-14T18:13:30.709Z,46.53
2019-02-14T18:15:59.581Z,32.17
2019-02-14T18:18:28.393Z,17.13
2019-02-14T18:21:00.106Z,13.90
2019-02-14T18:23:28.981Z,17.03
2019-02-14T18:25:57.965Z,19.53
2019-02-14T18:28:26.860Z,27.57
2019-02-14T18:30:55.758Z,24.13
2019-02-14T18:33:24.586Z,22.17
2019-02-14T18:35:53.497Z,20.27
2019-02-14T18:38:22.764Z,18.43
2019-02-14T18:41:03.900Z,18.70
2019-02-14T18:43:31.520Z,20.70
2019-02-14T18:46:03.622Z,14.47
2019-02-14T18:48:35.135Z,18.33
2019-02-14T18:54:47.800Z,16.90
2019-02-14T18:57:20.592Z,23.03
2019-02-14T18:59:58.492Z,18.60
2019-02-14T19:02:25.178Z,18.33
2019-02-14T19:04:58.261Z,20.80
2019-02-14T19:07:27.220Z,19.07
2019-02-14T19:09:56.135Z,16.43
2019-02-14T19:12:24.960Z,26.43
2019-02-14T19:14:53.800Z,22.20
2019-02-14T19:17:22.890Z,16.73
2019-02-14T19:19:51.820Z,18.70
2019-02-14T19:22:20.712Z,17.83
2019-02-14T19:24:51.857Z,13.67
2019-02-14T19:27:21.045Z,17.13
2019-02-14T19:29:53.622Z,15.13
2019-02-14T19:32:24.981Z,15.37
2019-02-14T19:34:54.224Z,19.80
2019-02-14T19:37:42.556Z,26.13
2019-02-14T19:40:16.989Z,19.40
2019-02-14T19:42:45.999Z,18.50
2019-02-14T19:45:14.947Z,17.97
2019-02-14T19:47:44.086Z,22.10
2019-02-14T19:50:13.440Z,17.03
2019-02-14T19:52:45.017Z,21.60
2019-02-14T19:55:17.853Z,17.60
2019-02-14T19:57:46.297Z,20.33
2019-02-14T20:00:17.456Z,17.80
2019-02-14T20:02:46.225Z,20.47
2019-02-14T20:05:22.016Z,21.47
2019-02-14T20:08:08.426Z,19.87
2019-02-14T20:10:42.952Z,17.77
2019-02-14T20:13:15.160Z,20.17
2019-02-14T20:15:50.511Z,19.83
2019-02-14T20:18:25.635Z,22.67
2019-02-14T20:21:06.786Z,20.07
2019-02-14T20:23:41.369Z,19.00
2019-02-14T20:26:11.925Z,18.50
2019-02-14T20:28:43.933Z,21.40
2019-02-14T20:31:12.894Z,19.87
2019-02-14T20:33:44.024Z,23.20
2019-02-14T20:36:17.456Z,23.33
2019-02-14T20:38:48.404Z,21.07
2019-02-14T20:41:54.472Z,21.30
2019-02-14T20:47:18.808Z,19.80
2019-02-14T20:49:47.665Z,17.43
2019-02-14T20:52:16.544Z,19.10
2019-02-14T20:54:45.781Z,22.73
2019-02-14T20:57:14.760Z,19.60
2019-02-14T20:59:43.632Z,23.90
2019-02-14T21:02:12.605Z,20.77
2019-02-14T21:04:41.520Z,41.00
2019-02-14T21:07:10.339Z,31.20
2019-02-14T21:09:39.176Z,22.90
2019-02-14T21:12:08.002Z,21.20
2019-02-14T21:14:36.926Z,20.57
2019-02-14T21:17:05.817Z,17.23
2019-02-14T21:19:34.668Z,17.67
2019-02-14T21:22:03.566Z,17.40
2019-02-14T21:24:32.686Z,24.77
2019-02-14T21:27:01.565Z,19.20
2019-02-14T21:29:30.440Z,32.87
2019-02-14T21:31:59.365Z,20.13
2019-02-14T21:34:28.228Z,21.07
2019-02-14T21:36:57.079Z,19.87
2019-02-14T21:39:25.934Z,20.93
2019-02-14T21:42:17.395Z,18.43
2019-02-14T21:44:25.355Z,16.07
2019-02-14T21:46:54.129Z,22.73
2019-02-14T21:49:22.989Z,17.90
2019-02-14T21:51:51.782Z,20.63
2019-02-14T21:54:20.663Z,21.63
2019-02-14T21:56:49.525Z,19.30
2019-02-14T21:59:18.321Z,23.23
2019-02-14T22:01:47.157Z,17.23
2019-02-14T22:04:19.109Z,18.30
2019-02-14T22:06:51.515Z,17.33
2019-02-14T22:09:23.353Z,20.40
2019-02-14T22:11:56.011Z,18.70
2019-02-14T22:14:24.833Z,18.50
2019-02-14T22:16:53.689Z,19.20
2019-02-14T22:19:22.464Z,20.13
2019-02-14T22:21:51.192Z,31.77
2019-02-14T22:24:19.913Z,27.03
2019-02-14T22:26:48.885Z,41.17
2019-02-14T22:29:17.710Z,36.87
2019-02-14T22:31:46.500Z,35.33
2019-02-14T22:34:15.265Z,33.80
2019-02-14T22:36:44.030Z,21.23
2019-02-14T22:39:13.049Z,18.37
2019-02-14T22:41:43.224Z,33.87
2019-02-14T22:44:12.150Z,18.87
2019-02-14T22:46:40.974Z,20.40
2019-02-14T22:49:09.771Z,20.23
2019-02-14T22:51:38.516Z,21.67
2019-02-14T22:54:07.215Z,16.80
2019-02-14T22:56:38.057Z,23.13
2019-02-14T22:59:06.811Z,22.17
2019-02-14T23:01:35.542Z,20.33
2019-02-14T23:04:04.285Z,16.90
2019-02-14T23:06:34.216Z,17.23
2019-02-14T23:09:04.079Z,16.17
2019-02-14T23:11:32.805Z,17.23
2019-02-14T23:14:01.520Z,15.70
2019-02-14T23:16:30.331Z,14.30
2019-02-14T23:18:59.006Z,17.50
2019-02-14T23:21:27.712Z,16.67
2019-02-14T23:23:56.390Z,20.23
2019-02-14T23:26:25.057Z,16.87
2019-02-14T23:28:53.749Z,21.77
2019-02-14T23:31:22.409Z,16.30
2019-02-14T23:33:51.080Z,14.47
2019-02-14T23:36:21.862Z,14.07
2019-02-14T23:38:52.387Z,14.73
2019-02-14T23:41:21.148Z,13.73
2019-02-14T23:43:50.247Z,14.17
2019-02-14T23:46:19.019Z,23.83
2019-02-14T23:48:47.729Z,15.70
2019-02-14T23:51:16.464Z,15.17
2019-02-14T23:53:45.242Z,15.70
2019-02-14T23:56:13.947Z,19.10
2019-02-14T23:58:45.760Z,16.40
